Time;durP1;ratioP1;P1;durP2;ratioP2;P2;SDS_P1;SDS_P2;PMS_P1;PMS_P2;Temp;Humidity;BMP_temperature;BMP_pressure;BME280_temperature;BME280_humidity;BME280_pressure;Samples;Min_cycle;Max_cycle;Signal;HPM_P1;HPM_P2
2022/10/12 00:00:56;;;;;;;9.43;5.20;;;9.40;99.90;;;;;;5075687;28;20453;-82
2022/10/12 00:03:24;;;;;;;8.90;4.77;;;9.30;99.90;;;;;;5075075;28;20461;-82
2022/10/12 00:06:03;;;;;;;10.80;5.77;;;9.30;99.90;;;;;;5076859;28;20461;-82
2022/10/12 00:08:32;;;;;;;9.17;5.23;;;9.30;99.90;;;;;;5075592;28;20442;-83
2022/10/12 00:11:00;;;;;;;8.23;5.13;;;9.30;99.90;;;;;;5077675;28;20452;-83
2022/10/12 00:13:29;;;;;;;9.43;5.50;;;9.20;99.90;;;;;;5077786;28;20461;-82
2022/10/12 00:15:57;;;;;;;8.30;5.50;;;9.20;99.90;;;;;;5077981;28;20470;-82
2022/10/12 00:18:25;;;;;;;9.87;6.03;;;9.20;99.90;;;;;;5078174;28;20425;-82
2022/10/12 00:21:01;;;;;;;8.40;4.93;;;9.10;99.90;;;;;;5078904;28;20425;-83
2022/10/12 00:23:32;;;;;;;8.33;5.03;;;9.20;99.90;;;;;;5078370;28;20420;-81
2022/10/12 00:26:04;;;;;;;9.93;5.47;;;9.10;99.90;;;;;;5076858;28;20470;-82
2022/10/12 00:28:33;;;;;;;8.50;5.37;;;9.00;99.90;;;;;;5075701;28;20481;-83
2022/10/12 00:31:02;;;;;;;9.20;5.00;;;9.10;99.90;;;;;;5075821;28;20517;-83
2022/10/12 00:33:30;;;;;;;12.87;5.87;;;9.00;99.90;;;;;;5076097;28;20414;-82
2022/10/12 00:35:58;;;;;;;10.30;5.60;;;9.00;99.90;;;;;;5076976;28;20445;-82
2022/10/12 00:38:27;;;;;;;12.00;5.67;;;9.00;99.90;;;;;;5070927;28;20476;-82
2022/10/12 00:40:56;;;;;;;10.60;6.00;;;8.90;99.90;;;;;;5069617;28;20970;-82
2022/10/12 00:43:30;;;;;;;9.70;6.07;;;8.90;99.90;;;;;;5068834;28;20468;-82
2022/10/12 00:46:00;;;;;;;11.43;5.90;;;8.90;99.90;;;;;;5066535;28;20477;-82
2022/10/12 00:48:28;;;;;;;9.50;5.60;;;8.80;99.90;;;;;;5067095;28;20452;-82
2022/10/12 00:50:59;;;;;;;8.47;5.33;;;8.90;99.90;;;;;;5066618;28;20460;-82
2022/10/12 00:53:35;;;;;;;7.17;5.43;;;8.80;99.90;;;;;;5066447;28;20476;-82
2022/10/12 00:56:09;;;;;;;11.33;5.70;;;8.80;99.90;;;;;;5065885;28;20508;-82
2022/10/12 00:58:37;;;;;;;8.13;5.63;;;8.80;99.90;;;;;;5066233;28;20452;-82
2022/10/12 01:01:07;;;;;;;10.53;5.70;;;8.80;99.90;;;;;;5067222;28;20446;-82
2022/10/12 01:03:36;;;;;;;8.77;5.90;;;8.70;99.90;;;;;;5069003;28;20461;-82
2022/10/12 01:06:06;;;;;;;8.97;6.10;;;8.60;99.90;;;;;;5068988;28;20564;-82
2022/10/12 01:08:36;;;;;;;9.23;5.50;;;8.60;99.90;;;;;;5068671;28;20927;-82
2022/10/12 01:11:06;;;;;;;18.10;5.83;;;8.60;99.90;;;;;;5068674;28;20985;-82
2022/10/12 01:13:34;;;;;;;9.63;6.17;;;8.60;99.90;;;;;;5069289;28;20870;-83
2022/10/12 01:16:08;;;;;;;7.77;5.33;;;8.60;99.90;;;;;;5068421;28;21009;-81
2022/10/12 01:18:44;;;;;;;11.13;5.90;;;8.60;99.90;;;;;;5067736;28;20997;-82
2022/10/12 01:21:18;;;;;;;8.67;5.80;;;8.60;99.90;;;;;;5070670;28;20446;-81
2022/10/12 01:24:18;;;;;;;8.73;5.50;;;8.50;99.90;;;;;;5072247;28;20777;-81
2022/10/12 01:27:40;;;;;;;9.50;6.17;;;8.50;99.90;;;;;;5072373;28;20456;-83
2022/10/12 01:30:17;;;;;;;8.50;5.53;;;8.50;99.90;;;;;;5007832;28;20479;-82
2022/10/12 01:33:20;;;;;;;14.40;6.53;;;8.50;99.90;;;;;;5012759;28;20448;-82
2022/10/12 01:35:55;;;;;;;8.40;5.70;;;8.50;99.90;;;;;;5051485;28;20982;-82
2022/10/12 01:38:40;;;;;;;9.90;5.30;;;8.40;99.90;;;;;;5069228;28;20927;-81
2022/10/12 01:41:15;;;;;;;10.30;6.70;;;8.40;99.90;;;;;;5069439;28;20442;-82
2022/10/12 01:43:45;;;;;;;11.57;6.27;;;8.40;99.90;;;;;;5067487;28;20471;-81
2022/10/12 01:46:52;;;;;;;7.57;5.50;;;8.40;99.90;;;;;;5067568;28;20466;-82
2022/10/12 01:49:25;;;;;;;7.40;5.30;;;8.40;99.90;;;;;;5061726;28;20454;-80
2022/10/12 01:52:03;;;;;;;9.97;6.17;;;8.30;99.90;;;;;;5067851;28;20457;-82
2022/10/12 01:54:44;;;;;;;8.93;5.30;;;8.30;99.90;;;;;;5065757;28;20986;-82
2022/10/12 01:57:19;;;;;;;9.83;6.30;;;8.30;99.90;;;;;;5064353;28;20523;-82
2022/10/12 01:59:58;;;;;;;8.20;5.50;;;8.80;99.90;;;;;;5066908;28;20440;-82
2022/10/12 02:02:33;;;;;;;9.00;5.73;;;8.20;99.90;;;;;;5064898;28;20446;-82
2022/10/12 02:05:07;;;;;;;8.33;5.43;;;8.70;99.90;;;;;;5066319;28;20851;-82
2022/10/12 02:07:41;;;;;;;11.50;6.07;;;8.20;99.90;;;;;;5066050;28;20425;-82
2022/10/12 02:10:16;;;;;;;9.90;5.80;;;8.20;99.90;;;;;;5066161;28;20441;-82
2022/10/12 02:12:46;;;;;;;11.50;7.00;;;8.10;99.90;;;;;;5065208;28;20895;-82
2022/10/12 02:15:16;;;;;;;14.87;8.70;;;8.10;99.90;;;;;;5064221;28;20480;-81
2022/10/12 02:17:48;;;;;;;16.83;11.87;;;8.10;99.90;;;;;;5066299;28;20434;-82
2022/10/12 02:20:20;;;;;;;24.00;16.47;;;8.10;99.90;;;;;;5065995;28;20896;-82
2022/10/12 02:22:51;;;;;;;17.57;14.53;;;8.00;99.90;;;;;;5063755;28;20434;-80
2022/10/12 02:25:21;;;;;;;23.93;17.97;;;8.00;99.90;;;;;;5063187;28;20481;-82
2022/10/12 02:27:55;;;;;;;16.97;12.03;;;8.00;99.90;;;;;;5064782;28;20445;-82
2022/10/12 02:30:24;;;;;;;13.17;10.10;;;8.50;99.90;;;;;;5065762;28;20460;-82
2022/10/12 02:32:58;;;;;;;11.27;8.77;;;7.90;99.90;;;;;;5067021;28;20442;-82
2022/10/12 02:35:35;;;;;;;11.23;7.60;;;7.90;99.90;;;;;;5065672;28;20474;-82
2022/10/12 02:38:09;;;;;;;12.33;7.40;;;7.90;99.90;;;;;;5064550;28;20439;-82
2022/10/12 02:40:41;;;;;;;8.40;7.07;;;7.90;99.90;;;;;;5065098;28;20442;-82
2022/10/12 02:43:17;;;;;;;10.60;8.30;;;7.80;99.90;;;;;;5066811;28;20460;-83
2022/10/12 02:45:47;;;;;;;18.77;14.50;;;8.10;99.90;;;;;;5067880;28;20474;-81
2022/10/12 02:48:19;;;;;;;20.97;16.00;;;7.80;99.90;;;;;;5067397;28;20456;-82
2022/10/12 02:50:52;;;;;;;16.60;14.10;;;7.80;99.90;;;;;;5067888;28;20899;-82
2022/10/12 02:53:23;;;;;;;15.03;10.87;;;7.80;99.90;;;;;;5068112;28;20428;-79
2022/10/12 02:55:54;;;;;;;12.40;9.73;;;7.70;99.90;;;;;;5065673;28;20476;-83
2022/10/12 02:58:23;;;;;;;11.73;8.77;;;7.70;99.90;;;;;;5066763;28;20504;-83
2022/10/12 03:00:53;;;;;;;14.03;9.10;;;7.70;99.90;;;;;;5066500;28;20461;-82
2022/10/12 03:03:21;;;;;;;9.60;8.03;;;7.60;99.90;;;;;;5066536;28;20476;-80
2022/10/12 03:05:50;;;;;;;11.90;7.50;;;7.70;99.90;;;;;;5068006;28;20475;-82
2022/10/12 03:08:18;;;;;;;8.70;7.13;;;7.60;99.90;;;;;;5066588;28;20439;-82
2022/10/12 03:10:46;;;;;;;8.90;8.00;;;7.60;99.90;;;;;;5068306;28;20439;-82
2022/10/12 03:13:15;;;;;;;11.93;9.83;;;7.50;99.90;;;;;;5066671;28;20859;-83
2022/10/12 03:15:43;;;;;;;14.60;11.20;;;8.20;99.90;;;;;;5068369;28;20477;-82
2022/10/12 03:18:11;;;;;;;13.27;11.50;;;7.50;99.90;;;;;;5066100;28;20449;-82
2022/10/12 03:20:39;;;;;;;11.60;9.27;;;7.50;99.90;;;;;;5066508;28;20520;-82
2022/10/12 03:23:08;;;;;;;13.17;10.57;;;7.50;99.90;;;;;;5065170;28;20453;-82
2022/10/12 03:25:36;;;;;;;16.63;13.47;;;7.50;99.90;;;;;;5073231;28;20464;-83
2022/10/12 03:28:05;;;;;;;12.47;10.70;;;7.40;99.90;;;;;;5070982;28;20859;-83
2022/10/12 03:30:33;;;;;;;13.73;8.73;;;7.40;99.90;;;;;;5068234;28;20453;-82
2022/10/12 03:33:01;;;;;;;14.83;12.27;;;7.40;99.90;;;;;;5069211;28;20836;-82
2022/10/12 03:35:29;;;;;;;15.57;12.47;;;7.30;99.90;;;;;;5067870;28;20475;-82
2022/10/12 03:37:57;;;;;;;14.10;8.70;;;7.30;99.90;;;;;;5069333;28;20446;-82
2022/10/12 03:40:27;;;;;;;13.47;11.10;;;7.40;99.90;;;;;;5068668;28;20455;-82
2022/10/12 03:42:55;;;;;;;12.60;8.90;;;7.30;99.90;;;;;;5068690;28;20478;-82
2022/10/12 03:45:23;;;;;;;12.50;8.50;;;7.30;99.90;;;;;;5070395;28;20486;-82
2022/10/12 03:47:51;;;;;;;10.60;8.30;;;7.20;99.90;;;;;;5069956;28;20428;-82
2022/10/12 03:50:19;;;;;;;13.50;8.00;;;7.20;99.90;;;;;;5067997;28;20479;-82
2022/10/12 03:52:47;;;;;;;11.20;7.40;;;7.20;99.90;;;;;;5069097;28;20455;-82
2022/10/12 03:55:16;;;;;;;8.50;7.60;;;7.20;99.90;;;;;;5068979;28;20529;-82
2022/10/12 03:57:45;;;;;;;9.43;7.67;;;7.20;99.90;;;;;;5067118;28;20449;-82
2022/10/12 04:00:14;;;;;;;9.40;6.67;;;7.10;99.90;;;;;;5068722;28;20812;-81
2022/10/12 04:02:42;;;;;;;9.67;7.53;;;7.10;99.90;;;;;;5066819;28;20452;-82
2022/10/12 04:05:10;;;;;;;11.27;7.60;;;7.10;99.90;;;;;;5066752;28;20822;-82
2022/10/12 04:07:39;;;;;;;9.77;7.67;;;7.10;99.90;;;;;;5068045;28;20495;-82
2022/10/12 04:10:08;;;;;;;8.47;7.17;;;7.10;99.90;;;;;;5066605;28;20510;-83
2022/10/12 04:12:36;;;;;;;8.73;7.57;;;7.10;99.90;;;;;;5065507;28;20484;-82
2022/10/12 04:15:07;;;;;;;8.97;6.60;;;7.00;99.90;;;;;;5066200;28;20468;-83
2022/10/12 04:17:35;;;;;;;7.60;6.07;;;7.00;99.90;;;;;;5065899;28;20824;-82
2022/10/12 04:20:05;;;;;;;9.57;7.37;;;7.00;99.90;;;;;;5065854;28;20459;-82
2022/10/12 04:22:33;;;;;;;7.03;6.10;;;7.00;99.90;;;;;;5065489;28;20455;-82
2022/10/12 04:25:01;;;;;;;11.03;6.37;;;6.90;99.90;;;;;;5065770;28;20488;-82
2022/10/12 04:27:29;;;;;;;10.73;7.53;;;7.80;99.90;;;;;;5065478;28;20443;-82
2022/10/12 04:29:57;;;;;;;8.20;6.53;;;6.90;99.90;;;;;;5067540;28;20446;-82
2022/10/12 04:32:27;;;;;;;11.27;7.73;;;6.90;99.90;;;;;;5068305;28;20487;-83
2022/10/12 04:34:55;;;;;;;8.00;6.97;;;6.90;99.90;;;;;;5069573;28;20456;-82
2022/10/12 04:37:23;;;;;;;9.00;7.33;;;6.90;99.90;;;;;;5073034;28;20467;-82
2022/10/12 04:39:51;;;;;;;7.93;6.80;;;6.80;99.90;;;;;;5072842;28;20519;-82
2022/10/12 04:42:19;;;;;;;15.10;7.50;;;6.80;99.90;;;;;;5072428;28;20853;-82
2022/10/12 04:44:48;;;;;;;10.87;7.37;;;6.80;99.90;;;;;;5071846;28;20493;-82
2022/10/12 04:47:16;;;;;;;8.90;6.97;;;6.80;99.90;;;;;;5071692;28;20476;-82
2022/10/12 04:49:45;;;;;;;10.20;7.60;;;6.80;99.90;;;;;;5070754;28;20451;-82
2022/10/12 04:52:13;;;;;;;9.70;7.50;;;6.70;99.90;;;;;;5071840;28;20444;-82
2022/10/12 04:54:41;;;;;;;11.17;8.10;;;6.70;99.90;;;;;;5069038;28;20476;-82
2022/10/12 04:57:10;;;;;;;10.60;7.40;;;6.70;99.90;;;;;;5069757;28;20470;-82
2022/10/12 04:59:38;;;;;;;11.60;7.20;;;6.70;99.90;;;;;;5069508;28;20446;-82
2022/10/12 05:02:06;;;;;;;16.90;7.77;;;6.70;99.90;;;;;;5070217;28;20456;-82
2022/10/12 05:04:34;;;;;;;10.27;8.50;;;6.70;99.90;;;;;;5068914;28;20444;-82
2022/10/12 05:07:03;;;;;;;10.43;7.70;;;6.70;99.90;;;;;;5069771;28;20446;-82
2022/10/12 05:09:32;;;;;;;10.17;7.23;;;6.70;99.90;;;;;;5070564;28;20437;-81
2022/10/12 05:12:00;;;;;;;11.30;7.30;;;6.70;99.90;;;;;;5068436;28;20456;-81
2022/10/12 05:14:28;;;;;;;14.53;7.77;;;6.60;99.90;;;;;;5068470;28;20453;-83
2022/10/12 05:17:03;;;;;;;10.83;7.90;;;6.60;99.90;;;;;;5068291;28;21002;-82
2022/10/12 05:19:31;;;;;;;8.10;6.40;;;6.70;99.90;;;;;;5068270;28;20995;-82
2022/10/12 05:21:59;;;;;;;12.20;7.90;;;6.60;99.90;;;;;;5068656;28;20454;-82
2022/10/12 05:24:28;;;;;;;12.07;6.50;;;6.60;99.90;;;;;;5068860;28;20458;-82
2022/10/12 05:26:57;;;;;;;10.37;7.60;;;6.60;99.90;;;;;;5068313;28;20449;-82
2022/10/12 05:29:25;;;;;;;9.70;7.13;;;7.00;99.90;;;;;;5071041;28;20436;-81
2022/10/12 05:31:53;;;;;;;16.23;8.30;;;6.60;99.90;;;;;;5070588;28;20536;-82
2022/10/12 05:34:21;;;;;;;11.13;8.00;;;6.50;99.90;;;;;;5070004;28;20522;-82
2022/10/12 05:36:49;;;;;;;14.30;9.00;;;6.50;99.90;;;;;;5069234;28;20541;-81
2022/10/12 05:39:17;;;;;;;12.67;9.10;;;6.50;99.90;;;;;;5071274;28;20445;-82
2022/10/12 05:41:47;;;;;;;14.60;9.63;;;6.50;99.90;;;;;;5070150;28;20461;-82
2022/10/12 05:44:15;;;;;;;13.10;8.80;;;6.50;99.90;;;;;;5077683;28;20438;-81
2022/10/12 05:46:43;;;;;;;15.70;8.83;;;6.50;99.90;;;;;;5080488;28;20447;-81
2022/10/12 05:49:11;;;;;;;12.30;8.33;;;6.50;99.90;;;;;;5078863;28;20446;-82
2022/10/12 05:51:39;;;;;;;11.87;7.90;;;6.50;99.90;;;;;;5074545;28;20447;-81
2022/10/12 05:54:08;;;;;;;13.40;10.80;;;6.70;99.90;;;;;;5074107;28;20434;-83
2022/10/12 05:56:36;;;;;;;14.57;8.30;;;6.50;99.90;;;;;;5074679;28;20534;-83
2022/10/12 05:59:05;;;;;;;10.60;7.80;;;6.40;99.90;;;;;;5072410;28;20525;-83
2022/10/12 06:01:34;;;;;;;8.90;7.20;;;6.40;99.90;;;;;;5073039;28;20458;-83
2022/10/12 06:04:02;;;;;;;10.47;7.40;;;6.40;99.90;;;;;;5073923;28;20535;-81
2022/10/12 06:06:30;;;;;;;9.10;7.80;;;6.40;99.90;;;;;;5072922;28;20464;-82
2022/10/12 06:08:58;;;;;;;13.17;9.37;;;6.40;99.90;;;;;;5072986;28;20503;-83
2022/10/12 06:11:26;;;;;;;10.23;9.13;;;6.40;99.90;;;;;;5072505;28;20438;-83
2022/10/12 06:13:59;;;;;;;8.30;7.10;;;6.40;99.90;;;;;;5071669;28;20438;-81
2022/10/12 06:16:29;;;;;;;12.77;8.70;;;6.40;99.90;;;;;;5071001;28;20468;-81
2022/10/12 06:18:57;;;;;;;8.27;7.00;;;6.40;99.90;;;;;;5071445;28;20442;-82
2022/10/12 06:21:25;;;;;;;9.93;8.43;;;6.40;99.90;;;;;;5070698;28;20451;-82
2022/10/12 06:24:01;;;;;;;9.43;8.03;;;6.40;99.90;;;;;;5070129;28;20788;-83
2022/10/12 06:26:30;;;;;;;9.30;7.87;;;6.40;99.90;;;;;;5069947;28;20466;-82
2022/10/12 06:28:59;;;;;;;11.40;8.00;;;6.40;99.90;;;;;;5069094;28;20462;-82
2022/10/12 06:31:30;;;;;;;9.93;7.50;;;6.40;99.90;;;;;;5069695;28;20457;-82
2022/10/12 06:33:59;;;;;;;10.97;7.90;;;6.40;99.90;;;;;;5068414;28;20451;-82
2022/10/12 06:36:27;;;;;;;10.03;7.40;;;6.40;99.90;;;;;;5069183;28;20565;-83
2022/10/12 06:38:55;;;;;;;13.90;9.70;;;6.40;99.90;;;;;;5069544;28;20457;-82
2022/10/12 06:41:23;;;;;;;10.60;8.30;;;6.50;99.90;;;;;;5070610;28;20450;-83
2022/10/12 06:43:51;;;;;;;10.63;8.70;;;6.40;99.90;;;;;;5070587;28;20963;-82
2022/10/12 06:46:19;;;;;;;16.10;8.40;;;6.50;99.90;;;;;;5068765;28;20493;-82
2022/10/12 06:48:49;;;;;;;12.03;7.97;;;6.50;99.90;;;;;;5068699;28;20544;-83
2022/10/12 06:51:17;;;;;;;11.80;9.93;;;6.50;99.90;;;;;;5069004;28;20452;-82
2022/10/12 06:53:45;;;;;;;14.97;10.03;;;6.50;99.90;;;;;;5070216;28;20446;-82
2022/10/12 06:56:14;;;;;;;13.13;10.17;;;6.50;99.90;;;;;;5069489;28;20488;-81
2022/10/12 06:58:42;;;;;;;12.30;9.43;;;6.50;99.90;;;;;;5068538;28;20468;-82
2022/10/12 07:01:10;;;;;;;10.40;9.00;;;6.50;99.90;;;;;;5069922;28;20456;-82
2022/10/12 07:03:38;;;;;;;11.00;8.93;;;6.50;99.90;;;;;;5069687;28;20454;-81
2022/10/12 07:06:10;;;;;;;13.17;9.67;;;6.60;99.90;;;;;;5068988;28;20482;-82
2022/10/12 07:08:40;;;;;;;10.67;9.53;;;6.60;99.90;;;;;;5067508;28;20467;-83
2022/10/12 07:11:11;;;;;;;13.50;10.93;;;6.60;99.90;;;;;;5070213;28;20447;-84
2022/10/12 07:13:39;;;;;;;13.70;11.97;;;6.60;99.90;;;;;;5069831;28;20453;-83
2022/10/12 07:16:08;;;;;;;16.63;11.47;;;6.70;99.90;;;;;;5067828;28;20450;-81
2022/10/12 07:18:36;;;;;;;13.77;11.67;;;6.70;99.90;;;;;;5070963;28;20490;-83
2022/10/12 07:21:04;;;;;;;17.90;11.50;;;6.70;99.90;;;;;;5075484;28;20432;-83
2022/10/12 07:23:36;;;;;;;12.50;11.20;;;6.80;99.90;;;;;;5072068;28;20804;-81
2022/10/12 07:26:09;;;;;;;13.17;10.87;;;6.80;99.90;;;;;;5073869;28;20474;-83
2022/10/12 07:28:38;;;;;;;13.83;11.23;;;6.80;99.90;;;;;;5071286;28;20449;-82
2022/10/12 07:31:08;;;;;;;15.57;12.53;;;6.90;99.90;;;;;;5071321;28;20519;-83
2022/10/12 07:33:38;;;;;;;21.07;12.50;;;6.90;99.90;;;;;;5072440;28;20554;-83
2022/10/12 07:36:07;;;;;;;15.37;12.87;;;7.00;99.90;;;;;;5071787;28;20470;-84
2022/10/12 07:38:50;;;;;;;19.00;13.30;;;7.00;99.90;;;;;;5070854;28;20513;-83
2022/10/12 07:41:19;;;;;;;15.07;13.40;;;7.10;99.90;;;;;;5070193;28;20439;-82
2022/10/12 07:43:47;;;;;;;14.13;12.73;;;7.10;99.90;;;;;;5070612;28;20459;-82
2022/10/12 07:46:15;;;;;;;14.70;12.43;;;7.20;99.90;;;;;;5068782;28;20485;-82
2022/10/12 07:48:44;;;;;;;14.40;11.50;;;7.20;99.90;;;;;;5070324;28;20438;-82
2022/10/12 07:51:17;;;;;;;14.97;13.37;;;7.30;99.90;;;;;;5066724;28;20451;-81
2022/10/12 07:53:46;;;;;;;15.50;12.77;;;7.30;99.90;;;;;;5067292;28;20453;-80
2022/10/12 07:56:16;;;;;;;17.43;14.20;;;7.40;99.90;;;;;;5064702;28;20908;-81
2022/10/12 07:58:48;;;;;;;18.63;13.40;;;7.60;99.90;;;;;;5066121;28;20468;-82
2022/10/12 08:01:18;;;;;;;15.10;12.20;;;7.70;99.90;;;;;;5064734;28;20439;-79
2022/10/12 08:03:46;;;;;;;20.00;13.10;;;7.80;99.90;;;;;;5063124;28;20453;-79
2022/10/12 08:06:16;;;;;;;18.23;12.47;;;7.90;99.90;;;;;;5063715;28;20484;-78
2022/10/12 08:08:44;;;;;;;16.43;12.27;;;8.10;99.90;;;;;;5063397;28;20928;-81
2022/10/12 08:11:14;;;;;;;18.87;11.77;;;8.20;99.90;;;;;;5063618;28;20878;-79
2022/10/12 08:13:43;;;;;;;17.23;10.87;;;8.40;99.90;;;;;;5065915;28;20473;-81
2022/10/12 08:16:13;;;;;;;16.10;11.00;;;8.50;99.90;;;;;;5067558;28;20470;-81
2022/10/12 08:18:41;;;;;;;12.23;10.77;;;8.90;99.90;;;;;;5065787;28;20467;-82
2022/10/12 08:21:11;;;;;;;14.00;11.30;;;8.70;99.90;;;;;;5065964;28;20536;-80
2022/10/12 08:23:39;;;;;;;15.13;11.33;;;8.80;99.90;;;;;;5065287;28;20457;-81
2022/10/12 08:26:08;;;;;;;15.83;12.00;;;9.00;99.90;;;;;;5066191;28;20474;-80
2022/10/12 08:28:37;;;;;;;13.40;10.17;;;9.20;99.90;;;;;;5065220;28;20951;-80
2022/10/12 08:31:08;;;;;;;18.60;11.03;;;9.30;99.90;;;;;;5063926;28;20505;-81
2022/10/12 08:33:36;;;;;;;14.30;10.30;;;9.40;99.90;;;;;;5062858;28;20454;-81
2022/10/12 08:36:06;;;;;;;11.37;9.30;;;9.50;99.90;;;;;;5062121;28;20889;-82
2022/10/12 08:38:37;;;;;;;18.87;10.10;;;9.70;99.90;;;;;;5061523;28;20473;-81
2022/10/12 08:41:25;;;;;;;18.13;11.33;;;9.80;99.90;;;;;;5059796;28;20453;-81
2022/10/12 08:44:27;;;;;;;13.70;8.30;;;9.90;99.90;;;;;;5062328;28;20438;-81
2022/10/12 08:46:59;;;;;;;13.33;7.60;;;10.10;99.90;;;;;;5062429;28;20449;-80
2022/10/12 08:49:31;;;;;;;10.33;6.80;;;10.20;99.90;;;;;;5062963;28;20427;-82
2022/10/12 08:52:01;;;;;;;10.57;7.20;;;10.30;99.90;;;;;;5060880;28;20442;-82
2022/10/12 08:54:35;;;;;;;13.60;8.10;;;10.40;99.90;;;;;;5057023;28;20496;-80
2022/10/12 08:57:03;;;;;;;14.97;7.10;;;10.50;99.90;;;;;;5058269;28;20464;-80
2022/10/12 08:59:33;;;;;;;11.73;6.83;;;10.60;99.90;;;;;;5060089;28;20480;-80
2022/10/12 09:02:13;;;;;;;12.07;7.20;;;10.70;99.90;;;;;;5059407;28;20442;-82
2022/10/12 09:04:53;;;;;;;10.20;5.73;;;10.80;99.90;;;;;;5062289;28;20545;-81
2022/10/12 09:07:29;;;;;;;12.23;6.77;;;10.90;99.90;;;;;;5063271;28;21022;-82
2022/10/12 09:10:10;;;;;;;9.40;6.20;;;11.00;99.90;;;;;;5061582;28;20453;-81
2022/10/12 09:12:50;;;;;;;13.20;6.80;;;11.10;99.90;;;;;;5061436;28;20518;-81
2022/10/12 09:15:23;;;;;;;11.27;5.30;;;11.20;99.90;;;;;;5062366;28;20500;-82
2022/10/12 09:17:54;;;;;;;8.23;5.13;;;11.30;99.90;;;;;;5064207;28;20446;-80
2022/10/12 09:20:25;;;;;;;10.83;5.60;;;11.40;99.90;;;;;;5060585;28;20493;-82
2022/10/12 09:22:58;;;;;;;10.03;5.57;;;11.50;99.90;;;;;;5065319;28;20525;-80
2022/10/12 09:25:28;;;;;;;12.43;5.57;;;11.50;99.90;;;;;;5064764;28;20461;-81
2022/10/12 09:28:06;;;;;;;12.27;5.93;;;11.60;99.90;;;;;;5065050;28;20458;-81
2022/10/12 09:30:40;;;;;;;14.90;6.00;;;11.60;99.90;;;;;;5064574;28;20438;-80
2022/10/12 09:33:22;;;;;;;10.70;6.57;;;11.70;99.90;;;;;;5063712;28;20445;-82
2022/10/12 09:35:52;;;;;;;12.70;5.77;;;11.80;99.90;;;;;;5063047;28;20462;-82
2022/10/12 09:38:23;;;;;;;13.97;6.00;;;11.80;99.90;;;;;;5064537;28;20530;-80
2022/10/12 09:40:51;;;;;;;15.83;6.20;;;11.90;99.90;;;;;;5063989;28;20440;-82
2022/10/12 09:43:19;;;;;;;14.13;6.07;;;12.00;99.90;;;;;;5065883;28;20454;-80
2022/10/12 09:45:49;;;;;;;10.03;4.97;;;12.00;99.90;;;;;;5066297;28;20470;-83
2022/10/12 09:48:21;;;;;;;11.17;4.63;;;12.10;99.90;;;;;;5065550;28;20450;-81
2022/10/12 09:50:52;;;;;;;11.83;5.77;;;12.10;99.90;;;;;;5063966;28;20878;-80
2022/10/12 09:53:31;;;;;;;11.03;5.40;;;12.20;99.90;;;;;;5066290;28;20449;-80
2022/10/12 09:56:05;;;;;;;10.03;4.60;;;12.20;99.90;;;;;;5067669;28;20526;-80
2022/10/12 09:58:41;;;;;;;10.97;4.90;;;12.30;99.90;;;;;;5066350;28;20464;-81
2022/10/12 10:01:29;;;;;;;9.63;5.07;;;12.40;99.90;;;;;;5063366;28;20456;-82
2022/10/12 10:04:16;;;;;;;9.20;4.97;;;12.40;99.90;;;;;;5064774;28;20477;-80
2022/10/12 10:06:46;;;;;;;9.93;4.63;;;12.50;99.90;;;;;;5065665;28;20528;-81
2022/10/12 10:09:29;;;;;;;7.97;4.20;;;12.50;99.90;;;;;;5066001;28;20454;-81
2022/10/12 10:11:57;;;;;;;14.90;4.70;;;12.60;99.90;;;;;;5060845;28;20453;-81
2022/10/12 10:14:26;;;;;;;11.23;4.60;;;12.60;99.90;;;;;;5060694;28;20430;-82
2022/10/12 10:16:58;;;;;;;11.13;3.90;;;12.70;99.90;;;;;;5060011;28;20871;-80
2022/10/12 10:19:26;;;;;;;11.90;4.70;;;12.80;99.90;;;;;;5059368;28;21013;-78
2022/10/12 10:21:55;;;;;;;9.30;4.07;;;12.80;99.90;;;;;;5061043;28;20446;-79
2022/10/12 10:24:27;;;;;;;9.67;3.73;;;12.90;99.90;;;;;;5059238;28;20450;-80
2022/10/12 10:26:57;;;;;;;8.30;3.43;;;12.90;99.90;;;;;;5061078;28;20430;-80
2022/10/12 10:29:37;;;;;;;5.83;3.90;;;13.00;99.90;;;;;;5063026;28;21042;-80
2022/10/12 10:32:23;;;;;;;8.03;3.63;;;13.00;99.90;;;;;;5066074;28;20496;-79
2022/10/12 10:35:02;;;;;;;7.80;3.30;;;13.10;99.90;;;;;;5065477;28;20466;-79
2022/10/12 10:37:32;;;;;;;11.37;4.40;;;13.10;99.90;;;;;;5068987;28;20421;-80
2022/10/12 10:40:01;;;;;;;9.93;3.37;;;13.20;99.90;;;;;;5066010;28;20470;-80
2022/10/12 10:42:33;;;;;;;7.53;3.07;;;13.20;99.90;;;;;;5067623;28;20488;-79
2022/10/12 10:45:03;;;;;;;11.60;3.00;;;13.20;99.90;;;;;;5067373;28;20568;-81
2022/10/12 10:47:41;;;;;;;9.40;3.13;;;13.30;99.90;;;;;;5068448;28;20884;-80
2022/10/12 10:50:24;;;;;;;8.53;2.93;;;13.40;99.90;;;;;;5066995;28;20501;-81
2022/10/12 10:52:56;;;;;;;9.93;4.00;;;13.40;99.90;;;;;;5067158;28;20434;-80
2022/10/12 10:55:31;;;;;;;7.43;3.27;;;13.50;99.90;;;;;;5066871;28;20472;-79
2022/10/12 10:58:04;;;;;;;7.13;3.13;;;13.50;99.90;;;;;;5065609;28;20419;-79
2022/10/12 11:00:35;;;;;;;8.37;3.10;;;13.60;99.90;;;;;;5067654;28;20492;-81
2022/10/12 11:03:16;;;;;;;6.90;3.43;;;13.70;99.90;;;;;;5066085;28;20448;-80
2022/10/12 11:05:50;;;;;;;8.40;3.60;;;13.70;99.90;;;;;;5067702;28;20465;-81
2022/10/12 11:08:22;;;;;;;7.77;3.37;;;13.80;99.90;;;;;;5066792;28;20438;-80
2022/10/12 11:10:57;;;;;;;7.00;3.10;;;13.80;99.90;;;;;;5076562;28;20438;-79
2022/10/12 11:13:31;;;;;;;8.03;3.60;;;13.90;99.90;;;;;;5078504;28;20422;-80
2022/10/12 11:16:04;;;;;;;9.03;3.43;;;13.90;99.90;;;;;;5078498;28;20460;-80
2022/10/12 11:18:37;;;;;;;7.77;3.37;;;13.90;99.90;;;;;;5072503;28;20446;-80
2022/10/12 11:21:12;;;;;;;7.20;3.00;;;14.00;99.90;;;;;;5070713;28;20534;-81
2022/10/12 11:23:45;;;;;;;5.93;3.00;;;14.00;99.90;;;;;;5071447;28;20441;-81
2022/10/12 11:26:25;;;;;;;8.20;3.93;;;14.10;99.90;;;;;;5072539;28;20458;-79
2022/10/12 11:28:56;;;;;;;8.40;3.83;;;14.10;99.90;;;;;;5073251;28;20422;-79
2022/10/12 11:31:31;;;;;;;9.67;3.30;;;14.10;99.90;;;;;;5068513;28;20449;-80
2022/10/12 11:34:04;;;;;;;12.40;3.53;;;14.20;99.90;;;;;;5068661;28;20474;-80
2022/10/12 11:36:42;;;;;;;6.33;3.10;;;14.20;99.90;;;;;;5068736;28;20480;-81
2022/10/12 11:39:36;;;;;;;5.83;3.27;;;14.20;99.90;;;;;;5068575;28;20489;-80
2022/10/12 11:42:10;;;;;;;6.37;3.30;;;14.30;99.90;;;;;;5068036;28;20430;-80
2022/10/12 11:44:54;;;;;;;9.70;3.50;;;14.30;99.90;;;;;;5068256;28;20465;-80
2022/10/12 11:47:32;;;;;;;8.60;3.57;;;14.40;99.90;;;;;;5068834;28;20452;-80
2022/10/12 11:50:05;;;;;;;8.30;2.90;;;14.40;99.90;;;;;;5070990;28;20459;-81
2022/10/12 11:52:39;;;;;;;9.23;4.00;;;14.40;99.90;;;;;;5069274;28;20481;-80
2022/10/12 11:55:25;;;;;;;11.07;3.33;;;14.50;99.90;;;;;;5068518;28;20465;-80
2022/10/12 11:57:54;;;;;;;7.50;3.03;;;14.50;99.90;;;;;;5067398;28;20931;-80
2022/10/12 12:00:27;;;;;;;5.50;3.10;;;14.60;99.90;;;;;;5067398;28;20466;-80
2022/10/12 12:03:02;;;;;;;7.47;2.60;;;14.60;99.90;;;;;;5067534;28;20428;-80
2022/10/12 12:05:32;;;;;;;8.23;2.80;;;14.60;99.90;;;;;;5067858;28;20457;-79
2022/10/12 12:08:00;;;;;;;10.70;3.30;;;14.70;99.90;;;;;;5067049;28;20431;-81
2022/10/12 12:11:03;;;;;;;7.33;2.70;;;14.70;99.90;;;;;;5066537;28;20809;-80
2022/10/12 12:13:32;;;;;;;7.20;3.60;;;14.80;99.90;;;;;;5065207;28;20446;-80
2022/10/12 12:16:34;;;;;;;8.00;2.73;;;14.80;99.90;;;;;;5066712;28;20535;-81
2022/10/12 12:19:37;;;;;;;7.83;3.03;;;14.90;99.90;;;;;;5065797;28;20441;-79
2022/10/12 12:22:33;;;;;;;7.70;3.23;;;14.90;99.90;;;;;;5063191;28;20429;-80
2022/10/12 12:25:30;;;;;;;8.10;2.80;;;15.00;99.90;;;;;;5063391;28;20477;-82
2022/10/12 12:28:00;;;;;;;5.77;2.17;;;15.10;99.90;;;;;;5064735;28;20418;-80
2022/10/12 12:30:37;;;;;;;10.27;5.60;;;15.10;99.90;;;;;;5062178;28;20438;-80
2022/10/12 12:33:28;;;;;;;7.83;3.53;;;15.10;99.90;;;;;;5061127;28;20446;-82
2022/10/12 12:35:59;;;;;;;7.70;4.33;;;15.20;99.90;;;;;;5062989;28;20597;-81
2022/10/12 12:38:32;;;;;;;8.83;3.20;;;15.20;99.90;;;;;;5063721;28;20450;-81
2022/10/12 12:41:06;;;;;;;9.43;3.10;;;15.30;99.90;;;;;;5061763;28;20466;-81
2022/10/12 12:43:51;;;;;;;10.57;3.20;;;15.30;99.90;;;;;;5064625;28;20429;-81
2022/10/12 12:46:20;;;;;;;12.33;3.93;;;15.40;99.90;;;;;;5062983;28;20473;-79
2022/10/12 12:49:02;;;;;;;6.57;2.60;;;15.40;99.90;;;;;;5060415;28;20454;-79
2022/10/12 12:51:42;;;;;;;5.97;2.67;;;15.40;99.90;;;;;;5060240;28;20860;-80
2022/10/12 12:54:20;;;;;;;7.60;2.40;;;15.40;99.90;;;;;;5061396;28;20426;-80
2022/10/12 12:57:08;;;;;;;5.73;2.93;;;15.50;99.90;;;;;;5061987;28;20495;-79
2022/10/12 13:00:02;;;;;;;9.60;4.13;;;15.50;99.90;;;;;;5065020;28;20481;-80
2022/10/12 13:03:22;;;;;;;6.73;3.30;;;15.60;99.90;;;;;;5065194;28;20466;-81
2022/10/12 13:06:57;;;;;;;8.33;3.50;;;15.60;99.90;;;;;;5066775;28;20480;-80
2022/10/12 13:09:42;;;;;;;8.83;3.17;;;15.70;99.90;;;;;;5008043;28;20535;-82
2022/10/12 13:12:37;;;;;;;7.37;2.70;;;15.60;99.90;;;;;;5008088;28;20463;-80
2022/10/12 13:15:37;;;;;;;15.63;6.50;;;15.70;99.90;;;;;;5056696;28;20483;-80